Flight Track Log - Related Links

Times and Time Zones

All times are in EDT time to prevent confusion due to time zone crossing. See the C-GHLU flight status page for this flight to view local times or setup timezone preferences in your user account.

Time Position Orientation Groundspeed Altitude Reporting Facility
EDT Latitude Longitude Course Direction KTS MPH feet Rate Location/Type
Wed 02:36:15 PM 49.1650 -123.1772 285° West  Level FlightAware Approximate
Wed 02:37:15 PM 49.2538 -123.2897 177° South  Level FlightAware Approximate
Wed 02:37:53 PM 49.1833 -123.2833 302° West 200 230 2,600  Level Vancouver Center
Wed 02:38:53 PM 49.2167 -123.3667 360° North 220 253 4,200 1,700 Climbing Vancouver Center
Wed 02:39:53 PM 49.2833 -123.3667 353° North 270 311 6,000 2,033 Climbing Vancouver Center
Wed 02:40:54 PM 49.3667 -123.3833 345° North 290 334 8,300 1,537 Climbing Vancouver Center
Wed 02:41:54 PM 49.4500 -123.4167 353° North 300 345 9,100 1,300 Climbing Vancouver Center
Wed 02:42:54 PM 49.5333 -123.4333 327° Northwest 300 345 10,900 1,600 Climbing Vancouver Center
Wed 02:43:54 PM 49.6167 -123.5167 342° North 360 414 12,300 1,800 Climbing Vancouver Center
Wed 02:44:54 PM 49.7167 -123.5667 335° Northwest 390 449 14,500 2,350 Climbing Vancouver Center
Wed 02:45:54 PM 49.8333 -123.6500 337° Northwest 410 472 17,000 2,250 Climbing Vancouver Center
Wed 02:46:54 PM 49.9333 -123.7167 332° Northwest 420 483 19,000 2,100 Climbing Vancouver Center
Wed 02:47:54 PM 50.0333 -123.8000 335° Northwest 430 495 21,200 2,000 Climbing Vancouver Center
Wed 02:48:54 PM 50.1500 -123.8833 340° North 430 495 23,000 1,800 Climbing Vancouver Center
Wed 02:49:54 PM 50.2667 -123.9500 332° Northwest 440 506 24,800 1,750 Climbing Vancouver Center
Wed 02:50:54 PM 50.3667 -124.0333 336° Northwest 440 506 26,500 1,900 Climbing Vancouver Center
Wed 02:51:54 PM 50.4833 -124.1167 336° Northwest 440 506 28,600 1,750 Climbing Vancouver Center
Wed 02:52:54 PM 50.6000 -124.2000 337° Northwest 440 506 30,000 700 Climbing Vancouver Center
Wed 02:53:54 PM 50.7000 -124.2667 336° Northwest 430 495 30,000  Level Vancouver Center
Wed 02:54:54 PM 50.8167 -124.3500 332° Northwest 430 495 30,000  Level Vancouver Center
Wed 02:55:54 PM 50.9167 -124.4333 336° Northwest 430 495 30,000  Level Vancouver Center
Wed 02:56:54 PM 51.0333 -124.5167 336° Northwest 440 506 30,000  Level Vancouver Center
Wed 02:57:54 PM 51.1500 -124.6000 336° Northwest 440 506 30,000  Level Vancouver Center
Wed 02:58:54 PM 51.2667 -124.6833 333° Northwest 440 506 30,000  Level Vancouver Center
Wed 02:59:54 PM 51.3667 -124.7667 336° Northwest 450 518 30,000  Level Vancouver Center
Wed 03:00:54 PM 51.4833 -124.8500 336° Northwest 450 518 30,000  Level Vancouver Center
Wed 03:01:54 PM 51.6000 -124.9333 333° Northwest 450 518 30,000  Level Vancouver Center
Wed 03:02:54 PM 51.7000 -125.0167 339° North 450 518 30,000  Level Vancouver Center
Wed 03:03:54 PM 51.8333 -125.1000 333° Northwest 450 518 30,000  Level Vancouver Center
Wed 03:04:54 PM 51.9333 -125.1833 336° Northwest 440 506 30,000  Level Vancouver Center
Wed 03:05:54 PM 52.0500 -125.2667 324° Northwest 440 506 30,000  Level Vancouver Center
Wed 03:06:54 PM 52.1500 -125.3833 345° North 440 506 30,000  Level Vancouver Center
Wed 03:07:54 PM 52.2667 -125.4333 329° Northwest 440 506 30,000  Level Vancouver Center
Wed 03:08:54 PM 52.3833 -125.5500 333° Northwest 440 506 30,000  Level Vancouver Center
Wed 03:09:54 PM 52.4833 -125.6333 337° Northwest 440 506 30,000  Level Vancouver Center
Wed 03:10:54 PM 52.6000 -125.7167 333° Northwest 450 518 30,000  Level Vancouver Center
Wed 03:11:54 PM 52.7167 -125.8167 337° Northwest 450 518 30,000  Level Vancouver Center
Wed 03:12:54 PM 52.8333 -125.9000 333° Northwest 450 518 30,000  Level Vancouver Center
Wed 03:13:54 PM 52.9333 -125.9833 337° Northwest 450 518 30,000  Level Vancouver Center
Wed 03:14:54 PM 53.0500 -126.0667 333° Northwest 450 518 30,000  Level Vancouver Center
Wed 03:15:54 PM 53.1667 -126.1667 334° Northwest 450 518 30,000  Level Vancouver Center
Wed 03:16:54 PM 53.2667 -126.2500 333° Northwest 460 529 30,000  Level Vancouver Center
Wed 03:17:54 PM 53.3833 -126.3500 333° Northwest 460 529 30,000  Level Vancouver Center
Wed 03:18:54 PM 53.5167 -126.4667 334° Northwest 460 529 30,000  Level Vancouver Center
Wed 03:19:54 PM 53.6167 -126.5500 333° Northwest 460 529 30,000  Level Vancouver Center
Wed 03:20:54 PM 53.7333 -126.6500 337° Northwest 460 529 30,000  Level Vancouver Center
Wed 03:21:54 PM 53.8500 -126.7333 333° Northwest 460 529 30,000  Level Vancouver Center
Wed 03:22:54 PM 53.9667 -126.8333 330° Northwest 470 541 30,000  Level Vancouver Center
Wed 03:23:54 PM 54.0833 -126.9500 333° Northwest 470 541 30,000  Level Vancouver Center
Wed 03:24:54 PM 54.2000 -127.0500 333° Northwest 470 541 30,000  Level Vancouver Center
Wed 03:25:54 PM 54.3167 -127.1500 337° Northwest 460 529 30,000  Level Vancouver Center
Wed 03:26:54 PM 54.4333 -127.2333 326° Northwest 470 541 30,000  Level Vancouver Center
Wed 03:27:54 PM 54.5500 -127.3667 334° Northwest 470 541 30,000  Level Vancouver Center
Wed 03:28:54 PM 54.6667 -127.4667 334° Northwest 470 541 30,000  Level Vancouver Center
Wed 03:29:54 PM 54.7667 -127.5500 334° Northwest 480 552 30,000  Level Vancouver Center
Wed 03:30:54 PM 54.8833 -127.6500 327° Northwest 460 529 30,000  Level Vancouver Center
Wed 03:31:54 PM 55.0000 -127.7833 334° Northwest 470 541 30,000  Level Vancouver Center
Wed 03:32:54 PM 55.1167 -127.8833 334° Northwest 460 529 30,000  Level Vancouver Center
Wed 03:33:54 PM 55.2333 -127.9833 330° Northwest 470 541 30,000  Level Vancouver Center
Wed 03:34:54 PM 55.3333 -128.0833 337° Northwest 460 529 30,000  Level Vancouver Center
Wed 03:35:54 PM 55.4667 -128.1833 323° Northwest 470 541 30,000  Level Vancouver Center
Wed 03:36:54 PM 55.5667 -128.3167 337° Northwest 460 529 30,000  Level Vancouver Center
Wed 03:37:54 PM 55.7000 -128.4167 331° Northwest 460 529 30,000  Level Vancouver Center
Wed 03:38:54 PM 55.8000 -128.5167 334° Northwest 470 541 30,000  Level Vancouver Center
Wed 03:39:54 PM 55.9167 -128.6167 334° Northwest 460 529 30,000  Level Vancouver Center
Wed 03:40:54 PM 56.0333 -128.7167 328° Northwest 470 541 30,000  Level Vancouver Center
Wed 03:41:54 PM 56.1500 -128.8500 331° Northwest 470 541 30,000  Level Vancouver Center
Wed 03:42:54 PM 56.2667 -128.9667 331° Northwest 460 529 30,000  Level Vancouver Center
Wed 03:43:54 PM 56.3667 -129.0667 335° Northwest 480 552 30,000  Level Vancouver Center
Wed 03:44:54 PM 56.4833 -129.1667 331° Northwest 470 541 30,000  Level Vancouver Center
Wed 03:45:54 PM 56.6167 -129.3000 322° Northwest 460 529 30,000  Level Vancouver Center
Wed 03:46:54 PM 56.7000 -129.4167 328° Northwest 470 541 30,000  Level Vancouver Center
Wed 03:47:54 PM 56.8167 -129.5500 331° Northwest 460 529 30,000  Level Vancouver Center
Wed 03:48:54 PM 56.9333 -129.6667 318° Northwest 470 541 30,000  Level Vancouver Center
Wed 03:49:54 PM 57.0333 -129.8333 328° Northwest 470 541 30,000  Level Vancouver Center
Wed 03:50:54 PM 57.1500 -129.9667 319° Northwest 470 541 30,000  Level Vancouver Center
Wed 03:58:15 PM 57.8888 -130.9296 318° Northwest  Level FlightAware Approximate
Wed 03:59:15 PM 57.9799 -131.0843 318° Northwest  Level FlightAware Approximate
Wed 04:00:15 PM 58.0709 -131.2399 317° Northwest  Level FlightAware Approximate
Wed 04:01:15 PM 58.1617 -131.3962 317° Northwest  Level FlightAware Approximate
Wed 04:02:15 PM 58.2523 -131.5534 317° Northwest  Level FlightAware Approximate
Wed 04:03:15 PM 58.3427 -131.7113 317° Northwest  Level FlightAware Approximate
Wed 04:04:15 PM 58.4329 -131.8701 317° Northwest  Level FlightAware Approximate
Wed 04:05:15 PM 58.5229 -132.0297 317° Northwest  Level FlightAware Approximate
Wed 04:06:15 PM 58.6127 -132.1901 317° Northwest  Level FlightAware Approximate
Wed 04:07:15 PM 58.7262 -132.1307 316° Northwest  Level FlightAware Approximate
Wed 04:08:15 PM 58.8144 -132.2952 316° Northwest  Level FlightAware Approximate
Wed 04:09:15 PM 58.9024 -132.4606 315° West  Level FlightAware Approximate
Wed 04:10:15 PM 58.9902 -132.6268 315° West  Level FlightAware Approximate
Wed 04:11:15 PM 59.0779 -132.7938 315° West  Level FlightAware Approximate
Wed 04:12:15 PM 59.1652 -132.9617 315° West  Level FlightAware Approximate
Wed 04:13:15 PM 59.2524 -133.1305 315° West  Level FlightAware Approximate
Wed 04:14:15 PM 59.3394 -133.3001 315° West  Level FlightAware Approximate
Wed 04:15:15 PM 59.4261 -133.4706 315° West  Level FlightAware Approximate
Wed 04:16:15 PM 59.5126 -133.6420 314° West  Level FlightAware Approximate
Wed 04:17:15 PM 59.5989 -133.8142 314° West  Level FlightAware Approximate
Wed 04:18:15 PM 59.6849 -133.9874 314° West  Level FlightAware Approximate
Wed 04:19:15 PM 59.7707 -134.1614 314° West  Level FlightAware Approximate
Wed 04:20:15 PM 59.8563 -134.3363 314° West  Level FlightAware Approximate
Wed 04:21:15 PM 59.9417 -134.5122 314° West  Level FlightAware Approximate
Wed 04:22:15 PM 60.0268 -134.6889 313° West  Level FlightAware Approximate
Wed 04:23:15 PM 60.1117 -134.8665 313° West  Level FlightAware Approximate
Wed 04:24:15 PM 60.1963 -135.0451 313° West  Level FlightAware Approximate
Wed 04:25:15 PM 60.2807 -135.2246 313° West  Level FlightAware Approximate
Wed 04:26:15 PM 60.3649 -135.4050 313° West  Level FlightAware Approximate
Wed 04:27:15 PM 60.4482 -135.5874 313° West  Level FlightAware Approximate
Wed 04:28:15 PM 60.5313 -135.7708 312° West  Level FlightAware Approximate
Wed 04:29:15 PM 60.6141 -135.9552 312° West  Level FlightAware Approximate
Wed 04:30:15 PM 60.6967 -136.1405 312° West  Level FlightAware Approximate
Wed 04:31:15 PM 60.7790 -136.3267 312° West  Level FlightAware Approximate
Wed 04:32:15 PM 60.8599 -136.5113 312° West  Level FlightAware Approximate
Wed 04:33:15 PM 60.9405 -136.6968 312° West  Level FlightAware Approximate
Wed 04:34:15 PM 61.0209 -136.8832 311° West  Level FlightAware Approximate
Wed 04:35:15 PM 61.1010 -137.0706 311° West  Level FlightAware Approximate
Wed 04:36:15 PM 61.1809 -137.2589 311° West  Level FlightAware Approximate
Wed 04:37:15 PM 61.2604 -137.4482 311° West  Level FlightAware Approximate
Wed 04:38:15 PM 61.3398 -137.6385 311° West  Level FlightAware Approximate
Wed 04:39:15 PM 61.4188 -137.8297 310° West  Level FlightAware Approximate
Wed 04:40:15 PM 61.4976 -138.0219 310° West  Level FlightAware Approximate
Wed 04:41:15 PM 61.5762 -138.2150 310° West  Level FlightAware Approximate
Wed 04:42:15 PM 61.6544 -138.4091 310° West  Level FlightAware Approximate
Wed 04:43:15 PM 61.7324 -138.6043 310° West  Level FlightAware Approximate
Wed 04:44:15 PM 61.8101 -138.8004 310° West  Level FlightAware Approximate
Wed 04:45:15 PM 61.8875 -138.9975 309° West  Level FlightAware Approximate
Wed 04:46:15 PM 61.9646 -139.1956 309° West  Level FlightAware Approximate
Wed 04:47:15 PM 62.0415 -139.3947 309° West  Level FlightAware Approximate
Wed 04:48:15 PM 62.1180 -139.5948 309° West  Level FlightAware Approximate
Wed 04:49:15 PM 62.1943 -139.7959 308° West  Level FlightAware Approximate
Wed 04:50:15 PM 62.2703 -139.9980 308° West  Level FlightAware Approximate
Wed 04:51:15 PM 62.3460 -140.2012 308° West  Level FlightAware Approximate
Wed 04:52:15 PM 62.4213 -140.4053 308° West  Level FlightAware Approximate
Wed 04:53:15 PM 62.4964 -140.6106 307° West  Level FlightAware Approximate
Wed 04:54:15 PM 62.5712 -140.8168 307° West  Level FlightAware Approximate
Wed 04:55:26 PM 62.8833 -141.7333 300° West 470 541 30,000  Level Anchorage Center
Wed 04:56:26 PM 62.9500 -141.9833 310° West 460 529 30,000 150 Level Anchorage Center
Wed 04:57:26 PM 63.0333 -142.2000 310° West 450 518 30,300 400 Climbing Anchorage Center
Wed 04:58:26 PM 63.1167 -142.4167 311° West 460 529 30,800 496 Climbing Anchorage Center
Wed 04:59:27 PM 63.2000 -142.6333 302° West 460 529 31,300 595 Climbing Anchorage Center
Wed 05:00:27 PM 63.2667 -142.8667 309° West 460 529 32,000 350 Climbing Anchorage Center
Wed 05:01:27 PM 63.3500 -143.1000 305° West 460 529 32,000  Level Anchorage Center
Wed 05:02:28 PM 63.4167 -143.3167 309° West 450 518 32,000  Level Anchorage Center
Wed 05:03:28 PM 63.5000 -143.5500 301° West 450 518 32,000  Level Anchorage Center
Wed 05:04:29 PM 63.5667 -143.8000 303° West 460 529 32,000  Level Anchorage Center
Wed 05:05:29 PM 63.6333 -144.0333 309° West 460 529 32,000  Level Anchorage Center
Wed 05:06:29 PM 63.7167 -144.2667 303° West 460 529 32,000  Level Anchorage Center
Wed 05:07:30 PM 63.7833 -144.5000 309° West 460 529 32,000  Level Anchorage Center
Wed 05:08:30 PM 63.8667 -144.7333 301° West 450 518 32,000  Level Anchorage Center
Wed 05:09:30 PM 63.9333 -144.9833 307° West 450 518 32,000  Level Anchorage Center
Wed 05:10:31 PM 64.0167 -145.2333 303° West 450 518 32,000  Level Anchorage Center
Wed 05:11:31 PM 64.0833 -145.4667 302° West 460 529 32,000  Level Anchorage Center
Wed 05:12:31 PM 64.1500 -145.7167 303° West 450 518 32,000  Level Anchorage Center
Wed 05:13:31 PM 64.2167 -145.9500 308° West 450 518 32,000  Level Anchorage Center
Wed 05:14:32 PM 64.3000 -146.2000 304° West 450 518 32,000  Level Anchorage Center
Wed 05:15:32 PM 64.3667 -146.4333 300° West 450 518 32,000  Level Anchorage Center
Wed 05:16:33 PM 64.4333 -146.7000 304° West 450 518 32,000  Level Anchorage Center
Wed 05:17:33 PM 64.5000 -146.9333 302° West 450 518 32,000  Level Anchorage Center
Wed 05:18:33 PM 64.5667 -147.1833 302° West 450 518 32,000  Level Anchorage Center
Wed 05:19:34 PM 64.6333 -147.4333 306° West 460 529 32,000  Level Anchorage Center
Wed 05:20:34 PM 64.7167 -147.7000 304° West 440 506 32,000  Level Anchorage Center
Wed 05:21:35 PM 64.7833 -147.9333 294° West 440 506 32,000  Level Anchorage Center
Wed 05:22:35 PM 64.8333 -148.2000 295° West 460 529 32,000  Level Anchorage Center
Wed 05:23:35 PM 64.8833 -148.4500 294° West 440 506 32,000  Level Anchorage Center
Wed 05:24:36 PM 64.9333 -148.7167 299° West 440 506 32,000  Level Anchorage Center
Wed 05:25:36 PM 65.0000 -149.0000 294° West 460 529 32,000  Level Anchorage Center
Wed 05:26:36 PM 65.0500 -149.2667 293° West 450 518 32,000  Level Anchorage Center
Wed 05:27:37 PM 65.1000 -149.5500 294° West 460 529 32,000  Level Anchorage Center
Wed 05:28:37 PM 65.1500 -149.8167 293° West 460 529 32,000  Level Anchorage Center
Wed 05:29:37 PM 65.2000 -150.1000 294° West 450 518 32,000  Level Anchorage Center
Wed 05:30:38 PM 65.2500 -150.3667 294° West 450 518 32,000  Level Anchorage Center
Wed 05:31:38 PM 65.3000 -150.6333 293° West 450 518 32,000  Level Anchorage Center
Wed 05:32:38 PM 65.3500 -150.9167 293° West 450 518 32,000  Level Anchorage Center
Wed 05:33:39 PM 65.4000 -151.2000 292° West 450 518 32,000  Level Anchorage Center
Wed 05:34:39 PM 65.4500 -151.5000 294° West 440 506 32,000  Level Anchorage Center
Wed 05:35:40 PM 65.5000 -151.7667 293° West 450 518 32,000  Level Anchorage Center
Wed 05:36:40 PM 65.5500 -152.0500 293° West 450 518 32,000  Level Anchorage Center
Wed 05:37:40 PM 65.6000 -152.3333 293° West 440 506 32,000  Level Anchorage Center
Wed 05:38:40 PM 65.6500 -152.6167 293° West 450 518 32,000  Level Anchorage Center
Wed 05:39:41 PM 65.7000 -152.9000 286° West 450 518 32,000  Level Anchorage Center
Wed 05:40:41 PM 65.7333 -153.1833 292° West 450 518 32,000  Level Anchorage Center
Wed 05:41:42 PM 65.7833 -153.4833 293° West 450 518 32,000  Level Anchorage Center
Wed 05:42:42 PM 65.8333 -153.7667 289° West 450 518 32,000  Level Anchorage Center
Wed 05:43:42 PM 65.8667 -154.0000 286° West 450 518 32,000  Level Anchorage Center
Wed 05:44:43 PM 65.9000 -154.2833 292° West 450 518 32,000  Level Anchorage Center
Wed 05:45:43 PM 65.9500 -154.5833 292° West 450 518 32,000  Level Anchorage Center
Wed 05:46:44 PM 66.0000 -154.8833 286° West 450 518 32,000  Level Anchorage Center
Wed 05:47:44 PM 66.0333 -155.1667 292° West 450 518 32,000  Level Anchorage Center
Wed 05:48:44 PM 66.0833 -155.4667 286° West 450 518 32,000  Level Anchorage Center
Wed 05:49:45 PM 66.1167 -155.7500 293° West 450 518 32,000  Level Anchorage Center
Wed 05:50:45 PM 66.1667 -156.0500 283° West 450 518 32,000  Level Anchorage Center
Wed 05:51:46 PM 66.2000 -156.4000 293° West 450 518 32,000  Level Anchorage Center
Wed 05:52:46 PM 66.2500 -156.7000 286° West 450 518 32,000  Level Anchorage Center
Wed 05:53:46 PM 66.2833 -157.0000 286° West 450 518 32,000  Level Anchorage Center
Wed 05:54:47 PM 66.3167 -157.3000 286° West 450 518 32,000  Level Anchorage Center
Wed 05:55:47 PM 66.3500 -157.5833 292° West 440 506 32,000  Level Anchorage Center
Wed 05:56:47 PM 66.4000 -157.9000 286° West 460 529 32,000  Level Anchorage Center
Wed 05:57:48 PM 66.4333 -158.2000 287° West 450 518 32,000  Level Anchorage Center
Wed 05:58:48 PM 66.4667 -158.4833 287° West 450 518 32,000  Level Anchorage Center
Wed 05:59:49 PM 66.5000 -158.7667 285° West 440 506 32,000  Level Anchorage Center
Wed 06:00:48 PM 66.5333 -159.0833 286° West 450 518 32,000  Level Anchorage Center
Wed 06:01:49 PM 66.5667 -159.3833 286° West 450 518 32,000  Level Anchorage Center
Wed 06:02:49 PM 66.6000 -159.6833 286° West 450 518 32,000  Level Anchorage Center
Wed 06:03:50 PM 66.6333 -159.9833 285° West 450 518 32,000  Level Anchorage Center
Wed 06:04:50 PM 66.6667 -160.3000 286° West 450 518 32,000  Level Anchorage Center
Wed 06:05:51 PM 66.7000 -160.6000 285° West 450 518 32,000  Level Anchorage Center
Wed 06:06:51 PM 66.7333 -160.9167 278° West 450 518 32,000  Level Anchorage Center
Wed 06:07:51 PM 66.7500 -161.2167 285° West 450 518 32,000  Level Anchorage Center
Wed 06:08:51 PM 66.7833 -161.5333 285° West 460 529 32,000  Level Anchorage Center
Wed 06:09:52 PM 66.8167 -161.8500 286° West 450 518 32,000  Level Anchorage Center
Wed 06:10:52 PM 66.8500 -162.1500 278° West 450 518 32,000  Level Anchorage Center
Wed 06:11:53 PM 66.8667 -162.4667 270° West 450 518 32,000  Level Anchorage Center
Wed 06:12:53 PM 66.8667 -162.7667 270° West 450 518 32,000  Level Anchorage Center
Wed 06:13:53 PM 66.8667 -163.1333 263° West 440 506 32,000  Level Anchorage Center
Wed 06:14:54 PM 66.8500 -163.4500 270° West 460 529 32,000  Level Anchorage Center
Wed 06:15:54 PM 66.8500 -163.7667 263° West 460 529 32,000  Level Anchorage Center
Wed 06:16:55 PM 66.8333 -164.0833 270° West 450 518 32,000  Level Anchorage Center
Wed 06:17:55 PM 66.8333 -164.4000 263° West 450 518 32,000  Level Anchorage Center
Wed 06:18:55 PM 66.8167 -164.7167 263° West 450 518 32,000  Level Anchorage Center
Wed 06:19:56 PM 66.8000 -165.0333 270° West 450 518 32,000  Level Anchorage Center
Wed 06:20:56 PM 66.8000 -165.3500 263° West 450 518 32,000  Level Anchorage Center
Wed 06:21:57 PM 66.7833 -165.6667 263° West 460 529 32,000  Level Anchorage Center
Wed 06:22:57 PM 66.7667 -165.9833 263° West 460 529 32,000  Level Anchorage Center
Wed 06:23:57 PM 66.7500 -166.3000 263° West 450 518 32,000  Level Anchorage Center
Wed 06:24:58 PM 66.7333 -166.6333 262° West 450 518 32,000  Level Anchorage Center
Wed 06:25:58 PM 66.7167 -166.9333 263° West 450 518 32,000  Level Anchorage Center
Wed 06:26:58 PM 66.7000 -167.2500 270° West 450 518 32,000  Level Anchorage Center
Wed 06:27:59 PM 66.7000 -167.5500 263° West 440 506 32,000  Level Anchorage Center
Wed 06:28:59 PM 66.6833 -167.8667 262° West 440 506 32,000  Level Anchorage Center
Wed 06:30:00 PM 66.6667 -168.1667 255° West 440 506 32,000  Level Anchorage Center
Wed 06:31:00 PM 66.6333 -168.4833 262° West 460 529 32,000  Level Anchorage Center
Wed 06:32:00 PM 66.6167 -168.7833 270° West 440 506 32,000  Level Anchorage Center
Wed 06:39:15 PM 66.5983 -170.9897 268° West  Level FlightAware Approximate
Wed 06:40:15 PM 66.5947 -171.2939 268° West  Level FlightAware Approximate
Wed 06:41:15 PM 66.5905 -171.5979 268° West  Level FlightAware Approximate
Wed 06:42:15 PM 66.5858 -171.9018 268° West  Level FlightAware Approximate
Wed 06:43:15 PM 66.5804 -172.2056 267° West  Level FlightAware Approximate
Wed 06:44:15 PM 66.5744 -172.5092 267° West  Level FlightAware Approximate
Wed 06:45:15 PM 66.5679 -172.8127 267° West  Level FlightAware Approximate
Wed 06:46:15 PM 66.5608 -173.1160 266° West  Level FlightAware Approximate
Wed 06:47:15 PM 66.5531 -173.4192 266° West  Level FlightAware Approximate
Wed 06:48:15 PM 66.5448 -173.7221 266° West  Level FlightAware Approximate
Wed 06:49:15 PM 66.5359 -174.0249 266° West  Level FlightAware Approximate
Wed 06:50:15 PM 66.5265 -174.3274 265° West  Level FlightAware Approximate
Wed 06:51:15 PM 66.5164 -174.6297 265° West  Level FlightAware Approximate
Wed 06:52:15 PM 66.5058 -174.9317 265° West  Level FlightAware Approximate
Wed 06:53:15 PM 66.4946 -175.2335 265° West  Level FlightAware Approximate
Wed 06:54:15 PM 66.4828 -175.5350 264° West  Level FlightAware Approximate
Wed 06:55:15 PM 66.4704 -175.8362 264° West  Level FlightAware Approximate
Wed 06:56:15 PM 66.4575 -176.1370 264° West  Level FlightAware Approximate
Wed 06:57:15 PM 66.4439 -176.4376 263° West  Level FlightAware Approximate
Wed 06:58:15 PM 66.4298 -176.7379 263° West  Level FlightAware Approximate
Wed 06:59:15 PM 66.4152 -177.0378 263° West  Level FlightAware Approximate
Wed 07:00:15 PM 66.3999 -177.3373 263° West  Level FlightAware Approximate
Wed 07:01:15 PM 66.3841 -177.6365 264° West  Level FlightAware Approximate
Wed 07:02:15 PM 66.3720 -177.9361 259° West  Level FlightAware Approximate
Wed 07:03:15 PM 66.3490 -178.2320 259° West  Level FlightAware Approximate
Wed 07:04:15 PM 66.3255 -178.5273 259° West  Level FlightAware Approximate
Wed 07:05:15 PM 66.3013 -178.8221 258° West  Level FlightAware Approximate
Wed 07:06:15 PM 66.2766 -179.1163 258° West  Level FlightAware Approximate
Wed 07:07:15 PM 66.2514 -179.4099 258° West  Level FlightAware Approximate
Wed 07:08:15 PM 66.2256 -179.7029 258° West  Level FlightAware Approximate
Wed 07:09:15 PM 66.1993 -179.9953 257° West  Level FlightAware Approximate
Wed 07:10:15 PM 66.1724 179.7129 257° West  Level FlightAware Approximate
Wed 07:11:15 PM 66.1449 179.4218 257° West  Level FlightAware Approximate
Wed 07:12:15 PM 66.1169 179.1312 256° West  Level FlightAware Approximate
Wed 07:13:15 PM 66.0884 178.8413 256° West  Level FlightAware Approximate
Wed 07:14:15 PM 66.0593 178.5521 256° West  Level FlightAware Approximate
Wed 07:15:15 PM 66.0297 178.2635 256° West  Level FlightAware Approximate
Wed 07:16:15 PM 65.9995 177.9757 255° West  Level FlightAware Approximate
Wed 07:17:15 PM 65.9688 177.6885 255° West  Level FlightAware Approximate
Wed 07:18:15 PM 65.9376 177.4020 255° West  Level FlightAware Approximate
Wed 07:19:15 PM 65.9059 177.1162 255° West  Level FlightAware Approximate
Wed 07:20:15 PM 65.8736 176.8311 254° West  Level FlightAware Approximate
Wed 07:21:15 PM 65.8408 176.5467 254° West  Level FlightAware Approximate
Wed 07:22:15 PM 65.8074 176.2631 254° West  Level FlightAware Approximate
Wed 07:23:15 PM 65.7735 175.9802 254° West  Level FlightAware Approximate
Wed 07:24:15 PM 65.7392 175.6981 253° West  Level FlightAware Approximate
Wed 07:25:15 PM 65.7042 175.4167 253° West  Level FlightAware Approximate
Wed 07:26:15 PM 65.6688 175.1361 253° West  Level FlightAware Approximate
Wed 07:27:15 PM 65.6329 174.8562 253° West  Level FlightAware Approximate
Wed 07:28:15 PM 65.5964 174.5771 252° West  Level FlightAware Approximate
Wed 07:29:15 PM 65.5595 174.2988 252° West  Level FlightAware Approximate
Wed 07:30:15 PM 65.5220 174.0213 252° West  Level FlightAware Approximate
Wed 07:31:15 PM 65.4840 173.7447 252° West  Level FlightAware Approximate
Wed 07:32:15 PM 65.4455 173.4688 251° West  Level FlightAware Approximate
Wed 07:33:15 PM 65.4066 173.1937 251° West  Level FlightAware Approximate
Wed 07:34:15 PM 65.3671 172.9195 251° West  Level FlightAware Approximate
Wed 07:35:15 PM 65.3271 172.6461 251° West  Level FlightAware Approximate
Wed 07:36:15 PM 65.2867 172.3735 242° Southwest  Level FlightAware Approximate
Wed 07:37:15 PM 65.2300 172.1184 242° Southwest  Level FlightAware Approximate
Wed 07:38:15 PM 65.1730 171.8644 242° Southwest  Level FlightAware Approximate
Wed 07:39:15 PM 65.1155 171.6115 241° Southwest  Level FlightAware Approximate
Wed 07:40:15 PM 65.0576 171.3596 241° Southwest  Level FlightAware Approximate
Wed 07:41:15 PM 64.9993 171.1089 241° Southwest  Level FlightAware Approximate
Wed 07:42:15 PM 64.9405 170.8593 241° Southwest  Level FlightAware Approximate
Wed 07:43:15 PM 64.8814 170.6108 241° Southwest  Level FlightAware Approximate
Wed 07:44:15 PM 64.8218 170.3634 240° Southwest  Level FlightAware Approximate
Wed 07:45:15 PM 64.7618 170.1170 240° Southwest  Level FlightAware Approximate
Wed 07:46:15 PM 64.7014 169.8718 240° Southwest  Level FlightAware Approximate
Wed 07:47:15 PM 64.6407 169.6277 240° Southwest  Level FlightAware Approximate
Wed 07:48:15 PM 64.5795 169.3846 239° Southwest  Level FlightAware Approximate
Wed 07:49:15 PM 64.5179 169.1427 239° Southwest  Level FlightAware Approximate
Wed 07:50:15 PM 64.4559 168.9018 238° Southwest  Level FlightAware Approximate
Wed 07:51:15 PM 64.3916 168.6647 238° Southwest  Level FlightAware Approximate
Wed 07:52:15 PM 64.3270 168.4288 238° Southwest  Level FlightAware Approximate
Wed 07:53:15 PM 64.2620 168.1939 237° Southwest  Level FlightAware Approximate
Wed 07:54:15 PM 64.1966 167.9602 237° Southwest  Level FlightAware Approximate
Wed 07:55:15 PM 64.1308 167.7276 237° Southwest  Level FlightAware Approximate
Wed 07:56:15 PM 64.0647 167.4960 237° Southwest  Level FlightAware Approximate
Wed 07:57:15 PM 63.9981 167.2656 237° Southwest  Level FlightAware Approximate
Wed 07:58:15 PM 63.9313 167.0363 236° Southwest  Level FlightAware Approximate
Wed 07:59:15 PM 63.8641 166.8080 236° Southwest  Level FlightAware Approximate
Wed 08:00:15 PM 63.7965 166.5809 236° Southwest  Level FlightAware Approximate
Wed 08:01:15 PM 63.7285 166.3548 236° Southwest  Level FlightAware Approximate
Wed 08:02:15 PM 63.6602 166.1298 235° Southwest  Level FlightAware Approximate
Wed 08:03:15 PM 63.5916 165.9059 235° Southwest  Level FlightAware Approximate
Wed 08:04:15 PM 63.5226 165.6831 235° Southwest  Level FlightAware Approximate
Wed 08:05:15 PM 63.4533 165.4614 235° Southwest  Level FlightAware Approximate
Wed 08:06:15 PM 63.3836 165.2407 235° Southwest  Level FlightAware Approximate
Wed 08:07:15 PM 63.3136 165.0211 234° Southwest  Level FlightAware Approximate
Wed 08:08:15 PM 63.2432 164.8026 234° Southwest  Level FlightAware Approximate
Wed 08:09:15 PM 63.1725 164.5851 234° Southwest  Level FlightAware Approximate
Wed 08:10:15 PM 63.1015 164.3687 234° Southwest  Level FlightAware Approximate
Wed 08:11:15 PM 63.0302 164.1534 234° Southwest  Level FlightAware Approximate
Wed 08:12:15 PM 62.9585 163.9391 234° Southwest  Level FlightAware Approximate
Wed 08:13:15 PM 62.8865 163.7259 233° Southwest  Level FlightAware Approximate
Wed 08:14:15 PM 62.8142 163.5137 233° Southwest  Level FlightAware Approximate
Wed 08:15:15 PM 62.7416 163.3025 233° Southwest  Level FlightAware Approximate
Wed 08:16:15 PM 62.6686 163.0924 233° Southwest  Level FlightAware Approximate
Wed 08:17:15 PM 62.5954 162.8833 233° Southwest  Level FlightAware Approximate
Wed 08:18:15 PM 62.5218 162.6753 232° Southwest  Level FlightAware Approximate
Wed 08:19:15 PM 62.4479 162.4683 232° Southwest  Level FlightAware Approximate
Wed 08:20:15 PM 62.3737 162.2623 232° Southwest  Level FlightAware Approximate
Wed 08:21:15 PM 62.2992 162.0573 232° Southwest  Level FlightAware Approximate
Wed 08:22:15 PM 62.2244 161.8533 232° Southwest  Level FlightAware Approximate
Wed 08:23:15 PM 62.1494 161.6504 231° Southwest  Level FlightAware Approximate
Wed 08:24:15 PM 62.0741 161.4487 231° Southwest  Level FlightAware Approximate
Wed 08:25:15 PM 61.9985 161.2481 231° Southwest  Level FlightAware Approximate
Wed 08:26:15 PM 61.9227 161.0484 231° Southwest  Level FlightAware Approximate
Wed 08:27:15 PM 61.8465 160.8497 231° Southwest  Level FlightAware Approximate
Wed 08:28:15 PM 61.7701 160.6520 230° Southwest  Level FlightAware Approximate
Wed 08:29:15 PM 61.6920 160.4578 230° Southwest  Level FlightAware Approximate
Wed 08:30:15 PM 61.6136 160.2646 229° Southwest  Level FlightAware Approximate
Wed 08:31:15 PM 61.5349 160.0724 229° Southwest  Level FlightAware Approximate
Wed 08:32:15 PM 61.4560 159.8811 229° Southwest  Level FlightAware Approximate
Wed 08:33:15 PM 61.3768 159.6908 229° Southwest  Level FlightAware Approximate
Wed 08:34:15 PM 61.2973 159.5014 229° Southwest  Level FlightAware Approximate
Wed 08:35:15 PM 61.2175 159.3130 229° Southwest  Level FlightAware Approximate
Wed 08:36:15 PM 61.1376 159.1256 228° Southwest  Level FlightAware Approximate
Wed 08:37:15 PM 61.0573 158.9391 228° Southwest  Level FlightAware Approximate
Wed 08:38:15 PM 60.9768 158.7536 228° Southwest  Level FlightAware Approximate
Wed 08:39:15 PM 60.8960 158.5690 228° Southwest  Level FlightAware Approximate
Wed 08:40:15 PM 60.8150 158.3853 228° Southwest  Level FlightAware Approximate
Wed 08:41:15 PM 60.7338 158.2026 228° Southwest  Level FlightAware Approximate
Wed 08:42:15 PM 60.6523 158.0208 227° Southwest  Level FlightAware Approximate
Wed 08:43:15 PM 60.5705 157.8399 227° Southwest  Level FlightAware Approximate
Wed 08:44:15 PM 60.4885 157.6599 227° Southwest  Level FlightAware Approximate
Wed 08:45:15 PM 60.4063 157.4808 227° Southwest  Level FlightAware Approximate
Wed 08:46:15 PM 60.3238 157.3026 227° Southwest  Level FlightAware Approximate
Wed 08:47:15 PM 60.2411 157.1254 227° Southwest  Level FlightAware Approximate
Wed 08:48:15 PM 60.1581 156.9490 227° Southwest  Level FlightAware Approximate
Wed 08:49:15 PM 60.0750 156.7735 226° Southwest  Level FlightAware Approximate
Wed 08:50:15 PM 59.9915 156.5989 226° Southwest  Level FlightAware Approximate
Wed 08:51:15 PM 59.9079 156.4252 226° Southwest  Level FlightAware Approximate
Wed 08:52:15 PM 59.8240 156.2523 226° Southwest  Level FlightAware Approximate
Wed 08:53:15 PM 59.7399 156.0804 250° West  Level FlightAware Approximate
Wed 08:54:15 PM 59.7009 155.8679 226° Southwest  Level FlightAware Approximate
Wed 08:55:15 PM 59.6169 155.6963 226° Southwest  Level FlightAware Approximate
Wed 08:56:15 PM 59.5327 155.5257 226° Southwest  Level FlightAware Approximate
Wed 08:57:15 PM 59.4482 155.3558 226° Southwest  Level FlightAware Approximate
Wed 08:58:15 PM 59.3636 155.1869 225° Southwest  Level FlightAware Approximate
Wed 08:59:15 PM 59.2787 155.0187 225° Southwest  Level FlightAware Approximate
Wed 09:00:15 PM 59.1936 154.8514 225° Southwest  Level FlightAware Approximate
Wed 09:01:15 PM 59.1083 154.6850 225° Southwest  Level FlightAware Approximate
Wed 09:02:15 PM 59.0228 154.5193 225° Southwest  Level FlightAware Approximate
Wed 09:03:15 PM 58.9370 154.3545 225° Southwest  Level FlightAware Approximate
Wed 09:04:15 PM 58.8511 154.1905 225° Southwest  Level FlightAware Approximate
Wed 09:05:15 PM 58.7649 154.0273 224° Southwest  Level FlightAware Approximate
Wed 09:06:15 PM 58.6786 153.8649 224° Southwest  Level FlightAware Approximate
Wed 09:07:15 PM 58.5920 153.7034 224° Southwest  Level FlightAware Approximate
Wed 09:08:15 PM 58.5053 153.5426 224° Southwest  Level FlightAware Approximate
Wed 09:09:15 PM 58.4183 153.3826 224° Southwest  Level FlightAware Approximate
Wed 09:10:15 PM 58.3312 153.2234 224° Southwest  Level FlightAware Approximate
Wed 09:11:15 PM 58.2438 153.0650 224° Southwest  Level FlightAware Approximate
Wed 09:12:15 PM 58.1563 152.9074 223° Southwest  Level FlightAware Approximate
Wed 09:13:15 PM 58.0685 152.7505 223° Southwest  Level FlightAware Approximate
Wed 09:14:15 PM 57.9806 152.5944 223° Southwest  Level FlightAware Approximate
Wed 09:15:15 PM 57.8925 152.4391 223° Southwest  Level FlightAware Approximate
Wed 09:16:15 PM 57.8042 152.2845 223° Southwest  Level FlightAware Approximate
Wed 09:17:15 PM 57.7157 152.1307 223° Southwest  Level FlightAware Approximate
Wed 09:18:15 PM 57.6270 151.9777 223° Southwest  Level FlightAware Approximate
Wed 09:19:15 PM 57.5381 151.8254 223° Southwest  Level FlightAware Approximate
Wed 09:20:15 PM 57.4491 151.6738 222° Southwest  Level FlightAware Approximate
Wed 09:21:15 PM 57.3598 151.5230 222° Southwest  Level FlightAware Approximate
Wed 09:22:15 PM 57.2704 151.3729 222° Southwest  Level FlightAware Approximate
Wed 09:23:15 PM 57.1808 151.2235 222° Southwest  Level FlightAware Approximate
Wed 09:24:15 PM 57.0911 151.0748 222° Southwest  Level FlightAware Approximate
Wed 09:25:15 PM 57.0011 150.9269 222° Southwest  Level FlightAware Approximate
Wed 09:26:15 PM 56.9110 150.7797 222° Southwest  Level FlightAware Approximate
Wed 09:27:15 PM 56.8207 150.6332 222° Southwest  Level FlightAware Approximate
Wed 09:28:15 PM 56.7303 150.4874 221° Southwest  Level FlightAware Approximate
Wed 09:29:15 PM 56.6396 150.3423 221° Southwest  Level FlightAware Approximate
Wed 09:30:15 PM 56.5489 150.1979 221° Southwest  Level FlightAware Approximate
Wed 09:31:15 PM 56.4579 150.0542 221° Southwest  Level FlightAware Approximate
Wed 09:32:15 PM 56.3668 149.9112 221° Southwest  Level FlightAware Approximate
Wed 09:33:15 PM 56.2755 149.7688 221° Southwest  Level FlightAware Approximate
Wed 09:34:15 PM 56.1840 149.6272 221° Southwest  Level FlightAware Approximate
Wed 09:35:15 PM 56.0924 149.4862 221° Southwest  Level FlightAware Approximate
Wed 09:36:15 PM 56.0007 149.3459 220° Southwest  Level FlightAware Approximate
Wed 09:37:15 PM 55.9087 149.2062 220° Southwest  Level FlightAware Approximate
Wed 09:38:15 PM 55.8166 149.0672 220° Southwest  Level FlightAware Approximate
Wed 09:39:15 PM 55.7244 148.9289 220° Southwest  Level FlightAware Approximate
Wed 09:40:15 PM 55.6320 148.7912 220° Southwest  Level FlightAware Approximate
Wed 09:41:15 PM 55.5395 148.6542 220° Southwest  Level FlightAware Approximate
Wed 09:42:15 PM 55.4468 148.5178 220° Southwest  Level FlightAware Approximate
Wed 09:43:15 PM 55.3539 148.3820 220° Southwest  Level FlightAware Approximate
Wed 09:44:15 PM 55.2609 148.2469 220° Southwest  Level FlightAware Approximate
Wed 09:45:15 PM 55.1678 148.1124 219° Southwest  Level FlightAware Approximate
Wed 09:46:15 PM 55.0745 147.9786 219° Southwest  Level FlightAware Approximate
Wed 09:47:15 PM 54.9810 147.8454 219° Southwest  Level FlightAware Approximate
Wed 09:48:15 PM 54.8874 147.7128 219° Southwest  Level FlightAware Approximate
Wed 09:49:15 PM 54.7937 147.5808 219° Southwest  Level FlightAware Approximate
Wed 09:50:15 PM 54.6998 147.4494 219° Southwest  Level FlightAware Approximate
Wed 09:51:15 PM 54.6058 147.3186 219° Southwest  Level FlightAware Approximate
Wed 09:52:15 PM 54.5116 147.1884 219° Southwest  Level FlightAware Approximate
Wed 09:53:15 PM 54.4173 147.0589 219° Southwest  Level FlightAware Approximate
Wed 09:54:15 PM 54.3229 146.9299 218° Southwest  Level FlightAware Approximate
Wed 09:55:15 PM 54.2283 146.8015 218° Southwest  Level FlightAware Approximate
Wed 09:56:15 PM 54.1336 146.6737 218° Southwest  Level FlightAware Approximate
Wed 09:57:15 PM 54.0387 146.5465 218° Southwest  Level FlightAware Approximate
Wed 09:58:15 PM 53.9437 146.4198 218° Southwest  Level FlightAware Approximate
Wed 09:59:15 PM 53.8486 146.2937 218° Southwest  Level FlightAware Approximate
Wed 10:00:15 PM 53.7534 146.1682 218° Southwest  Level FlightAware Approximate
Wed 10:01:15 PM 53.6580 146.0433 218° Southwest  Level FlightAware Approximate
Wed 10:02:15 PM 53.5625 145.9190 218° Southwest  Level FlightAware Approximate
Wed 10:03:15 PM 53.4669 145.7952 218° Southwest  Level FlightAware Approximate
Wed 10:04:15 PM 53.3711 145.6719 217° Southwest  Level FlightAware Approximate
Wed 10:05:15 PM 53.2753 145.5492 217° Southwest  Level FlightAware Approximate
Wed 10:06:15 PM 53.1792 145.4271 217° Southwest  Level FlightAware Approximate
Wed 10:07:15 PM 53.0831 145.3055 217° Southwest  Level FlightAware Approximate
Wed 10:08:15 PM 52.9869 145.1844 217° Southwest  Level FlightAware Approximate
Wed 10:09:15 PM 52.8905 145.0639 217° Southwest  Level FlightAware Approximate
Wed 10:10:15 PM 52.7940 144.9440 217° Southwest  Level FlightAware Approximate
Wed 10:11:15 PM 52.6973 144.8245 217° Southwest  Level FlightAware Approximate
Wed 10:12:15 PM 52.6006 144.7056 217° Southwest  Level FlightAware Approximate
Wed 10:13:15 PM 52.5037 144.5872 217° Southwest  Level FlightAware Approximate
Wed 10:14:15 PM 52.4068 144.4693 216° Southwest  Level FlightAware Approximate
Wed 10:15:15 PM 52.3097 144.3520 216° Southwest  Level FlightAware Approximate
Wed 10:16:15 PM 52.2125 144.2351 216° Southwest  Level FlightAware Approximate
Wed 10:17:15 PM 52.1151 144.1188 216° Southwest  Level FlightAware Approximate
Wed 10:18:15 PM 52.0180 144.0033 216° Southwest  Level FlightAware Approximate
Wed 10:19:15 PM 51.9207 143.8883 216° Southwest  Level FlightAware Approximate
Wed 10:20:15 PM 51.8233 143.7738 216° Southwest  Level FlightAware Approximate
Wed 10:21:15 PM 51.7258 143.6598 216° Southwest  Level FlightAware Approximate
Wed 10:22:15 PM 51.6282 143.5463 216° Southwest  Level FlightAware Approximate
Wed 10:23:15 PM 51.5305 143.4332 216° Southwest  Level FlightAware Approximate
Wed 10:24:15 PM 51.4326 143.3207 216° Southwest  Level FlightAware Approximate
Wed 10:25:15 PM 51.3347 143.2086 215° Southwest  Level FlightAware Approximate
Wed 10:26:15 PM 51.2367 143.0970 215° Southwest  Level FlightAware Approximate
Wed 10:27:15 PM 51.1385 142.9859 215° Southwest  Level FlightAware Approximate
Wed 10:28:15 PM 51.0403 142.8753 215° Southwest  Level FlightAware Approximate
Wed 10:29:15 PM 50.9419 142.7651 215° Southwest  Level FlightAware Approximate
Wed 10:30:15 PM 50.8434 142.6554 215° Southwest  Level FlightAware Approximate
Wed 10:31:15 PM 50.7449 142.5461 215° Southwest  Level FlightAware Approximate
Wed 10:32:15 PM 50.6462 142.4374 215° Southwest  Level FlightAware Approximate
Wed 10:33:15 PM 50.5474 142.3290 215° Southwest  Level FlightAware Approximate
Wed 10:34:15 PM 50.4486 142.2211 215° Southwest  Level FlightAware Approximate
Wed 10:35:15 PM 50.3496 142.1137 215° Southwest  Level FlightAware Approximate
Wed 10:36:15 PM 50.2505 142.0067 215° Southwest  Level FlightAware Approximate
Wed 10:37:15 PM 50.1514 141.9002 214° Southwest  Level FlightAware Approximate
Wed 10:38:15 PM 50.0521 141.7941 214° Southwest  Level FlightAware Approximate
Wed 10:39:15 PM 49.9528 141.6885 214° Southwest  Level FlightAware Approximate
Wed 10:40:15 PM 49.8533 141.5832 214° Southwest  Level FlightAware Approximate
Wed 10:41:15 PM 49.7538 141.4785 214° Southwest  Level FlightAware Approximate
Wed 10:42:15 PM 49.6541 141.3741 214° Southwest  Level FlightAware Approximate
Wed 10:43:15 PM 49.5544 141.2702 214° Southwest  Level FlightAware Approximate
Wed 10:44:15 PM 49.4546 141.1667 214° Southwest  Level FlightAware Approximate
Wed 10:45:15 PM 49.3546 141.0636 214° Southwest  Level FlightAware Approximate
Wed 10:46:15 PM 49.2546 140.9609 214° Southwest  Level FlightAware Approximate
Wed 10:47:15 PM 49.1545 140.8586 214° Southwest  Level FlightAware Approximate
Wed 10:48:15 PM 49.0543 140.7568 214° Southwest  Level FlightAware Approximate
Wed 10:49:15 PM 48.9541 140.6554 214° Southwest  Level FlightAware Approximate
Wed 10:50:15 PM 48.8537 140.5543 213° Southwest  Level FlightAware Approximate
Wed 10:51:15 PM 48.7532 140.4537 213° Southwest  Level FlightAware Approximate
Wed 10:52:15 PM 48.6527 140.3535 213° Southwest  Level FlightAware Approximate
Wed 10:53:15 PM 48.5521 140.2537 213° Southwest  Level FlightAware Approximate
Wed 10:54:15 PM 48.4514 140.1543 213° Southwest  Level FlightAware Approximate
Wed 10:55:15 PM 48.3506 140.0552 213° Southwest  Level FlightAware Approximate
Wed 10:56:15 PM 48.2497 139.9566 213° Southwest  Level FlightAware Approximate
Wed 10:57:15 PM 48.1487 139.8583 213° Southwest  Level FlightAware Approximate
Wed 10:58:15 PM 48.0476 139.7605 213° Southwest  Level FlightAware Approximate
Wed 10:59:15 PM 47.9465 139.6630 213° Southwest  Level FlightAware Approximate
Wed 11:00:15 PM 47.8453 139.5659 213° Southwest  Level FlightAware Approximate
Wed 11:01:15 PM 47.7440 139.4692 213° Southwest  Level FlightAware Approximate
Wed 11:02:15 PM 47.6426 139.3728 213° Southwest  Level FlightAware Approximate
Wed 11:03:15 PM 47.5411 139.2769 212° Southwest  Level FlightAware Approximate
Wed 11:04:15 PM 47.4396 139.1813 212° Southwest  Level FlightAware Approximate
Wed 11:05:15 PM 47.3380 139.0860 212° Southwest  Level FlightAware Approximate
Wed 11:06:15 PM 47.2363 138.9912 212° Southwest  Level FlightAware Approximate
Wed 11:07:15 PM 47.1345 138.8967 212° Southwest  Level FlightAware Approximate
Wed 11:08:15 PM 47.0327 138.8025 212° Southwest  Level FlightAware Approximate
Wed 11:09:15 PM 46.9307 138.7088 212° Southwest  Level FlightAware Approximate
Wed 11:10:15 PM 46.8287 138.6153 212° Southwest  Level FlightAware Approximate
Wed 11:11:15 PM 46.7266 138.5222 212° Southwest  Level FlightAware Approximate
Wed 11:12:15 PM 46.6245 138.4295 212° Southwest  Level FlightAware Approximate
Wed 11:13:15 PM 46.5223 138.3372 212° Southwest  Level FlightAware Approximate
Wed 11:14:15 PM 46.4199 138.2451 212° Southwest  Level FlightAware Approximate
Wed 11:15:15 PM 46.3176 138.1534 212° Southwest  Level FlightAware Approximate
Wed 11:16:15 PM 46.2151 138.0621 212° Southwest  Level FlightAware Approximate
Wed 11:17:15 PM 46.1126 137.9711 212° Southwest  Level FlightAware Approximate
Wed 11:18:15 PM 46.0100 137.8805 211° Southwest  Level FlightAware Approximate
Wed 11:19:15 PM 45.9073 137.7901 211° Southwest  Level FlightAware Approximate
Wed 11:20:15 PM 45.8046 137.7002 211° Southwest  Level FlightAware Approximate
Wed 11:21:15 PM 45.7018 137.6105 211° Southwest  Level FlightAware Approximate
Wed 11:22:15 PM 45.5989 137.5212 211° Southwest  Level FlightAware Approximate
Wed 11:23:15 PM 45.4959 137.4322 211° Southwest  Level FlightAware Approximate
Wed 11:24:15 PM 45.3929 137.3435 211° Southwest  Level FlightAware Approximate
Wed 11:25:15 PM 45.2898 137.2552 211° Southwest  Level FlightAware Approximate
Wed 11:26:15 PM 45.1867 137.1671 211° Southwest  Level FlightAware Approximate
Wed 11:27:15 PM 45.0835 137.0794 211° Southwest  Level FlightAware Approximate
Wed 11:28:15 PM 44.9802 136.9920 211° Southwest  Level FlightAware Approximate
Wed 11:29:15 PM 44.8768 136.9049 211° Southwest  Level FlightAware Approximate
Wed 11:30:15 PM 44.7734 136.8181 211° Southwest  Level FlightAware Approximate
Wed 11:31:15 PM 44.6699 136.7317 211° Southwest  Level FlightAware Approximate
Wed 11:32:15 PM 44.5664 136.6455 211° Southwest  Level FlightAware Approximate
Wed 11:33:15 PM 44.4627 136.5597 211° Southwest  Level FlightAware Approximate
Wed 11:34:15 PM 44.3591 136.4742 210° Southwest  Level FlightAware Approximate
Wed 11:35:15 PM 44.2553 136.3889 210° Southwest  Level FlightAware Approximate
Wed 11:36:15 PM 44.1515 136.3040 210° Southwest  Level FlightAware Approximate
Wed 11:37:15 PM 44.0476 136.2193 210° Southwest  Level FlightAware Approximate
Wed 11:38:15 PM 43.9437 136.1350 210° Southwest  Level FlightAware Approximate
Wed 11:39:15 PM 43.8397 136.0509 210° Southwest  Level FlightAware Approximate
Wed 11:40:15 PM 43.7357 135.9672 210° Southwest  Level FlightAware Approximate
Wed 11:41:15 PM 43.6315 135.8837 210° Southwest  Level FlightAware Approximate
Wed 11:42:15 PM 43.5274 135.8005 210° Southwest  Level FlightAware Approximate
Wed 11:43:15 PM 43.4231 135.7177 210° Southwest  Level FlightAware Approximate
Wed 11:44:15 PM 43.3188 135.6351 210° Southwest  Level FlightAware Approximate
Wed 11:45:15 PM 43.2145 135.5527 210° Southwest  Level FlightAware Approximate
Wed 11:46:15 PM 43.1101 135.4707 210° Southwest  Level FlightAware Approximate
Wed 11:47:15 PM 43.0056 135.3889 210° Southwest  Level FlightAware Approximate
Wed 11:48:15 PM 42.9011 135.3074 210° Southwest  Level FlightAware Approximate
Wed 11:49:15 PM 42.7965 135.2262 210° Southwest  Level FlightAware Approximate
Wed 11:50:15 PM 42.6918 135.1453 210° Southwest  Level FlightAware Approximate
Wed 11:51:15 PM 42.5871 135.0647 210° Southwest  Level FlightAware Approximate
Wed 11:52:15 PM 42.4824 134.9843 209° Southwest  Level FlightAware Approximate
Wed 11:53:15 PM 42.3775 134.9041 209° Southwest  Level FlightAware Approximate
Wed 11:54:15 PM 42.2727 134.8243 209° Southwest  Level FlightAware Approximate
Wed 11:55:15 PM 42.1678 134.7447 209° Southwest  Level FlightAware Approximate
Wed 11:56:15 PM 42.0628 134.6653 209° Southwest  Level FlightAware Approximate
Wed 11:57:15 PM 41.9577 134.5863 209° Southwest  Level FlightAware Approximate
Wed 11:58:15 PM 41.8526 134.5075 209° Southwest  Level FlightAware Approximate
Wed 11:59:15 PM 41.7475 134.4289 209° Southwest  Level FlightAware Approximate
Thu 12:00:15 AM 41.6423 134.3506 209° Southwest  Level FlightAware Approximate
Thu 12:01:15 AM 41.5371 134.2726 209° Southwest  Level FlightAware Approximate
Thu 12:02:15 AM 41.4318 134.1948 209° Southwest  Level FlightAware Approximate
Thu 12:03:15 AM 41.3264 134.1173 209° Southwest  Level FlightAware Approximate
Thu 12:04:15 AM 41.2210 134.0400 209° Southwest  Level FlightAware Approximate
Thu 12:05:15 AM 41.1155 133.9630 225° Southwest  Level FlightAware Approximate
Thu 12:06:15 AM 41.0309 133.8496 225° Southwest  Level FlightAware Approximate
Thu 12:07:15 AM 40.9461 133.7364 225° Southwest  Level FlightAware Approximate
Thu 12:08:15 AM 40.8612 133.6236 225° Southwest  Level FlightAware Approximate
Thu 12:09:15 AM 40.7762 133.5110 225° Southwest  Level FlightAware Approximate
Thu 12:10:15 AM 40.6910 133.3987 232° Southwest  Level FlightAware Approximate
Thu 12:11:15 AM 40.6165 133.2742 232° Southwest  Level FlightAware Approximate
Thu 12:12:15 AM 40.5419 133.1499 232° Southwest  Level FlightAware Approximate
Thu 12:13:15 AM 40.4671 133.0258 232° Southwest  Level FlightAware Approximate
Thu 12:14:15 AM 40.3922 132.9021 231° Southwest  Level FlightAware Approximate
Thu 12:15:15 AM 40.3172 132.7786 231° Southwest  Level FlightAware Approximate
Thu 12:16:15 AM 40.2420 132.6554 231° Southwest  Level FlightAware Approximate
Thu 12:17:15 AM 40.1667 132.5325 231° Southwest  Level FlightAware Approximate
Thu 12:18:15 AM 40.0913 132.4099 237° Southwest  Level FlightAware Approximate
Thu 12:19:15 AM 40.0252 132.2784 237° Southwest  Level FlightAware Approximate
Thu 12:20:15 AM 39.9590 132.1473 237° Southwest  Level FlightAware Approximate
Thu 12:21:15 AM 39.8926 132.0164 238° Southwest  Level FlightAware Approximate
Thu 12:22:15 AM 39.8286 131.8836 238° Southwest  Level FlightAware Approximate
Thu 12:23:15 AM 39.7644 131.7511 230° Southwest  Level FlightAware Approximate
Thu 12:24:15 AM 39.6865 131.6319 230° Southwest  Level FlightAware Approximate
Thu 12:25:15 AM 39.6084 131.5129 226° Southwest  Level FlightAware Approximate
Thu 12:26:15 AM 39.5247 131.4008 226° Southwest  Level FlightAware Approximate
Thu 12:27:15 AM 39.4408 131.2889 226° Southwest  Level FlightAware Approximate
Thu 12:28:15 AM 39.3569 131.1774 226° Southwest  Level FlightAware Approximate
Thu 12:29:15 AM 39.2728 131.0660 226° Southwest  Level FlightAware Approximate
Thu 12:30:15 AM 39.1886 130.9550 226° Southwest  Level FlightAware Approximate
Thu 12:31:15 AM 39.1044 130.8442 226° Southwest  Level FlightAware Approximate
Thu 12:32:15 AM 39.0200 130.7337 220° Southwest  Level FlightAware Approximate
Thu 12:33:15 AM 38.9277 130.6342 220° Southwest  Level FlightAware Approximate
Thu 12:34:15 AM 38.8354 130.5350 220° Southwest  Level FlightAware Approximate
Thu 12:35:15 AM 38.7430 130.4361 220° Southwest  Level FlightAware Approximate
Thu 12:36:15 AM 38.6506 130.3374 220° Southwest  Level FlightAware Approximate
Thu 12:37:15 AM 38.5580 130.2390 220° Southwest  Level FlightAware Approximate
Thu 12:38:15 AM 38.4654 130.1408 220° Southwest  Level FlightAware Approximate
Thu 12:39:15 AM 38.3727 130.0429 220° Southwest  Level FlightAware Approximate
Thu 12:40:15 AM 38.2799 129.9453 220° Southwest  Level FlightAware Approximate
Thu 12:41:15 AM 38.1872 129.8481 219° Southwest  Level FlightAware Approximate
Thu 12:42:15 AM 38.0945 129.7512 219° Southwest  Level FlightAware Approximate
Thu 12:43:15 AM 38.0017 129.6545 219° Southwest  Level FlightAware Approximate
Thu 12:44:15 AM 37.9089 129.5581 219° Southwest  Level FlightAware Approximate
Thu 12:45:15 AM 37.8159 129.4619 213° Southwest  Level FlightAware Approximate
Thu 12:46:15 AM 37.7149 129.3799 213° Southwest  Level FlightAware Approximate
Thu 12:47:15 AM 37.6139 129.2981 213° Southwest  Level FlightAware Approximate
Thu 12:48:15 AM 37.5128 129.2166 213° Southwest  Level FlightAware Approximate
Thu 12:49:15 AM 37.4116 129.1352 213° Southwest  Level FlightAware Approximate
Thu 12:50:15 AM 37.3104 129.0541 212° Southwest  Level FlightAware Approximate
Thu 12:51:15 AM 37.2091 128.9732 207° Southwest  Level FlightAware Approximate
Thu 12:52:15 AM 37.1025 128.9040 207° Southwest  Level FlightAware Approximate
Thu 12:53:15 AM 36.9959 128.8350 207° Southwest  Level FlightAware Approximate
Thu 12:54:15 AM 36.8892 128.7662 206° Southwest  Level FlightAware Approximate
Thu 12:55:15 AM 36.7815 128.7000 206° Southwest  Level FlightAware Approximate
Thu 12:56:15 AM 36.6738 128.6340 206° Southwest  Level FlightAware Approximate
Thu 12:57:15 AM 36.5660 128.5682 206° Southwest  Level FlightAware Approximate
Thu 12:58:15 AM 36.4582 128.5025 205° Southwest  Level FlightAware Approximate
Thu 12:59:15 AM 36.3498 128.4386 205° Southwest  Level FlightAware Approximate
Thu 01:00:15 AM 36.2413 128.3749 205° Southwest  Level FlightAware Approximate
Thu 01:01:15 AM 36.1328 128.3114 205° Southwest  Level FlightAware Approximate
Thu 01:02:15 AM 36.0243 128.2480 214° Southwest  Level FlightAware Approximate
Thu 01:03:15 AM 35.9245 128.1655 214° Southwest  Level FlightAware Approximate
Thu 01:04:15 AM 35.8247 128.0833 214° Southwest  Level FlightAware Approximate
Thu 01:05:15 AM 35.7248 128.0013 214° Southwest  Level FlightAware Approximate
Thu 01:06:15 AM 35.6249 127.9194 214° Southwest  Level FlightAware Approximate
Thu 01:07:15 AM 35.5249 127.8378 220° Southwest  Level FlightAware Approximate
Thu 01:08:15 AM 35.4334 127.7424 220° Southwest  Level FlightAware Approximate
Thu 01:09:15 AM 35.3419 127.6472 220° Southwest  Level FlightAware Approximate
Thu 01:10:15 AM 35.2503 127.5522 220° Southwest  Level FlightAware Approximate
Thu 01:11:15 AM 35.1586 127.4574 220° Southwest  Level FlightAware Approximate
Thu 01:12:15 AM 35.0668 127.3629 220° Southwest  Level FlightAware Approximate
Thu 01:13:15 AM 34.9750 127.2685 220° Southwest  Level FlightAware Approximate
Thu 01:14:15 AM 34.8831 127.1744 220° Southwest  Level FlightAware Approximate
Thu 01:15:15 AM 34.7911 127.0805 220° Southwest  Level FlightAware Approximate
Thu 01:16:15 AM 34.6991 126.9867 220° Southwest  Level FlightAware Approximate
Thu 01:17:15 AM 34.6069 126.8932 220° Southwest  Level FlightAware Approximate
Thu 01:18:15 AM 34.5148 126.7999 220° Southwest  Level FlightAware Approximate
Thu 01:19:15 AM 34.4225 126.7068 220° Southwest  Level FlightAware Approximate
Thu 01:20:15 AM 34.3302 126.6139 135° Southeast  Level FlightAware Approximate
Thu 01:21:15 AM 34.2467 126.7163 225° Southwest  Level FlightAware Approximate
Thu 01:22:15 AM 34.1620 126.6136 225° Southwest  Level FlightAware Approximate
Thu 01:23:15 AM 34.0771 126.5110 225° Southwest  Level FlightAware Approximate
Thu 01:24:15 AM 33.9922 126.4087 226° Southwest  Level FlightAware Approximate
Thu 01:25:15 AM 33.9091 126.3043 227° Southwest  Level FlightAware Approximate
Thu 01:26:15 AM 33.8278 126.1980 227° Southwest  Level FlightAware Approximate
Thu 01:27:15 AM 33.7464 126.0919 233° Southwest  Level FlightAware Approximate
Thu 01:28:15 AM 33.6746 125.9763 234° Southwest  Level FlightAware Approximate
Thu 01:29:15 AM 33.6043 125.8594 234° Southwest  Level FlightAware Approximate
Thu 01:30:15 AM 33.5339 125.7428 235° Southwest  Level FlightAware Approximate
Thu 01:31:15 AM 33.4648 125.6251 235° Southwest  Level FlightAware Approximate
Thu 01:32:15 AM 33.3956 125.5076 235° Southwest  Level FlightAware Approximate
Thu 01:33:15 AM 33.3263 125.3903 235° Southwest  Level FlightAware Approximate
Thu 01:34:15 AM 33.2568 125.2732 235° Southwest  Level FlightAware Approximate
Thu 01:35:15 AM 33.1873 125.1563 235° Southwest  Level FlightAware Approximate
Thu 01:36:15 AM 33.1176 125.0396 234° Southwest  Level FlightAware Approximate
Thu 01:37:15 AM 33.0478 124.9230 234° Southwest  Level FlightAware Approximate
Thu 01:38:15 AM 32.9780 124.8067 234° Southwest  Level FlightAware Approximate
Thu 01:39:15 AM 32.9080 124.6905 234° Southwest  Level FlightAware Approximate
Thu 01:40:15 AM 32.8379 124.5745 234° Southwest  Level FlightAware Approximate
Thu 01:41:15 AM 32.7677 124.4587 234° Southwest  Level FlightAware Approximate
Thu 01:42:15 AM 32.6974 124.3431 234° Southwest  Level FlightAware Approximate
Thu 01:43:15 AM 32.6270 124.2276 234° Southwest  Level FlightAware Approximate
Thu 01:44:15 AM 32.5565 124.1124 234° Southwest  Level FlightAware Approximate
Thu 01:45:15 AM 32.4859 123.9973 234° Southwest  Level FlightAware Approximate
Thu 01:46:15 AM 32.4151 123.8824 234° Southwest  Level FlightAware Approximate
Thu 01:47:15 AM 32.3443 123.7676 234° Southwest  Level FlightAware Approximate
Thu 01:48:15 AM 32.2734 123.6531 234° Southwest  Level FlightAware Approximate
Thu 01:49:15 AM 32.2023 123.5387 234° Southwest  Level FlightAware Approximate
Thu 01:50:15 AM 32.1312 123.4245 234° Southwest  Level FlightAware Approximate
Thu 01:51:15 AM 32.0600 123.3105 234° Southwest  Level FlightAware Approximate
Thu 01:52:15 AM 31.9886 123.1967 233° Southwest  Level FlightAware Approximate
Thu 01:53:15 AM 31.9172 123.0831 233° Southwest  Level FlightAware Approximate
Thu 01:54:15 AM 31.8456 122.9696 233° Southwest  Level FlightAware Approximate
Thu 01:55:15 AM 31.7740 122.8563 233° Southwest  Level FlightAware Approximate
Thu 01:56:15 AM 31.7022 122.7431 233° Southwest  Level FlightAware Approximate
Thu 01:57:15 AM 31.6304 122.6302 233° Southwest  Level FlightAware Approximate
Thu 01:58:15 AM 31.5584 122.5174 233° Southwest  Level FlightAware Approximate
Thu 01:59:15 AM 31.4864 122.4048 233° Southwest  Level FlightAware Approximate
Thu 02:00:15 AM 31.4143 122.2924 233° Southwest  Level FlightAware Approximate
Thu 02:01:15 AM 31.3420 122.1801 233° Southwest  Level FlightAware Approximate
Thu 02:02:15 AM 31.2697 122.0681 209° Southwest  Level FlightAware Approximate
Thu 02:03:15 AM 31.1833 122.0131 253° West  Level FlightAware Approximate
Thu 02:04:15 AM 31.1497 121.8816 265° West  Level FlightAware Approximate
Thu 02:05:15 AM 31.1389 121.7419 75° East  Level Estimated
Thu 02:06:15 AM 31.9836 125.7181 257° West  Level FlightAware Approximate
Thu 02:07:15 AM 31.9559 125.5804 257° West  Level FlightAware Approximate
Thu 02:08:15 AM 31.9281 125.4428 257° West  Level FlightAware Approximate
Thu 02:09:15 AM 31.9001 125.3054 256° West  Level FlightAware Approximate
Thu 02:10:15 AM 31.8720 125.1680 256° West  Level FlightAware Approximate
Thu 02:11:15 AM 31.8437 125.0306 256° West  Level FlightAware Approximate
Thu 02:12:15 AM 31.8153 124.8934 256° West  Level FlightAware Approximate
Thu 02:13:15 AM 31.7867 124.7562 256° West  Level FlightAware Approximate
Thu 02:14:15 AM 31.7580 124.6192 256° West  Level FlightAware Approximate
Thu 02:15:15 AM 31.7291 124.4822 256° West  Level FlightAware Approximate
Thu 02:16:15 AM 31.7001 124.3453 256° West  Level FlightAware Approximate
Thu 02:17:15 AM 31.6709 124.2085 256° West  Level FlightAware Approximate
Thu 02:18:15 AM 31.6416 124.0718 256° West  Level FlightAware Approximate
Thu 02:19:15 AM 31.6121 123.9351 256° West  Level FlightAware Approximate
Thu 02:20:15 AM 31.5825 123.7986 256° West  Level FlightAware Approximate
Thu 02:21:15 AM 31.5528 123.6621 256° West  Level FlightAware Approximate
Thu 02:22:15 AM 31.5229 123.5258 256° West  Level FlightAware Approximate
Thu 02:23:15 AM 31.4928 123.3895 255° West  Level FlightAware Approximate
Thu 02:24:15 AM 31.4627 123.2533 255° West  Level FlightAware Approximate
Thu 02:25:15 AM 31.4324 123.1172 255° West  Level FlightAware Approximate
Thu 02:26:15 AM 31.4019 122.9811 255° West  Level FlightAware Approximate
Thu 02:27:15 AM 31.3713 122.8452 255° West  Level FlightAware Approximate
Thu 02:28:15 AM 31.3405 122.7094 255° West  Level FlightAware Approximate
Thu 02:29:15 AM 31.3096 122.5736 255° West  Level FlightAware Approximate
Thu 02:30:15 AM 31.2786 122.4379 255° West  Level FlightAware Approximate
Thu 02:31:15 AM 31.2474 122.3023 255° West  Level FlightAware Approximate
Thu 02:32:15 AM 31.2161 122.1668 255° West  Level FlightAware Approximate
Thu 02:33:15 AM 31.1846 122.0314 255° West  Level FlightAware Approximate
Thu 02:34:15 AM 31.1530 121.8961 259° West  Level FlightAware Approximate
Thu 02:35:15 AM 31.1333 121.7833 39° Northeast  Level FlightAware Approximate
Thu 02:36:15 AM 31.2262 121.8721 219° Southwest  Level Estimated
Thu 02:37:15 AM 31.1333 121.7833 39° Northeast  Level Estimated
Thu 02:38:15 AM 31.2262 121.8721 219° Southwest  Level Estimated
Thu 02:39:15 AM 31.1333 121.7833 360° North  Level Estimated
Thu 02:40:15 AM 31.1333 121.7833 39° Northeast  Level FlightAware Approximate
Thu 02:41:15 AM 31.2262 121.8721 219° Southwest  Level Estimated
Thu 02:42:15 AM 31.1333 121.7833 39° Northeast  Level FlightAware Approximate
Thu 02:43:15 AM 31.2262 121.8721 219° Southwest  Level Estimated
Thu 02:44:15 AM 31.1333 121.7833 219° Southwest  Level FlightAware Approximate

Login

Don't have an account? Register now (free) for customized features, flight alerts, and more!